Time;durP1;ratioP1;P1;durP2;ratioP2;P2;SDS_P1;SDS_P2;PMS_P1;PMS_P2;Temp;Humidity;BMP_temperature;BMP_pressure;BME280_temperature;BME280_humidity;BME280_pressure;Samples;Min_cycle;Max_cycle;Signal;HPM_P1;HPM_P2
2022/03/28 00:00:17;;;;;;;16.60;8.50;;;;;;;3.96;100.00;96197.44;4993072;28;20416;-62
2022/03/28 00:02:44;;;;;;;15.60;8.40;;;;;;;3.90;100.00;96195.56;5008410;28;20030;-62
2022/03/28 00:05:21;;;;;;;14.15;8.65;;;;;;;3.81;100.00;96185.34;5008063;28;20057;-62
2022/03/28 00:07:56;;;;;;;17.05;9.02;;;;;;;3.72;100.00;96179.38;4993062;28;20030;-62
2022/03/28 00:10:21;;;;;;;16.70;8.32;;;;;;;3.68;100.00;96165.69;4991652;28;20084;-62
2022/03/28 00:12:49;;;;;;;15.20;8.65;;;;;;;3.68;100.00;96162.22;4991860;28;20408;-62
2022/03/28 00:15:14;;;;;;;16.27;8.73;;;;;;;3.63;100.00;96154.06;4993074;28;20030;-62
2022/03/28 00:17:43;;;;;;;16.98;8.32;;;;;;;3.61;100.00;96148.94;4993123;28;20041;-62
2022/03/28 00:20:12;;;;;;;15.93;8.57;;;;;;;3.63;100.00;96130.22;4992937;28;20069;-61
2022/03/28 00:22:41;;;;;;;18.25;9.65;;;;;;;3.72;100.00;96131.69;4992659;28;20169;-62
2022/03/28 00:25:08;;;;;;;14.00;8.80;;;;;;;3.75;100.00;96132.09;4991475;28;20030;-62
2022/03/28 00:27:33;;;;;;;17.40;10.02;;;;;;;3.73;100.00;96125.38;4992842;28;20030;-62
2022/03/28 00:29:59;;;;;;;14.90;9.07;;;;;;;3.61;100.00;96119.00;4983813;28;20029;-62
2022/03/28 00:32:25;;;;;;;17.80;9.65;;;;;;;3.53;100.00;96112.00;4955981;28;20023;-60
2022/03/28 00:35:00;;;;;;;16.77;8.90;;;;;;;3.51;100.00;96100.00;4976816;28;20058;-62
2022/03/28 00:37:25;;;;;;;15.00;8.63;;;;;;;3.45;100.00;96093.63;4977160;28;20030;-62
2022/03/28 00:39:51;;;;;;;14.63;8.45;;;;;;;3.40;100.00;96083.63;5000939;28;20030;-62
2022/03/28 00:42:16;;;;;;;14.77;8.60;;;;;;;3.45;100.00;96083.03;4996538;28;20022;-62
2022/03/28 00:44:41;;;;;;;19.35;9.68;;;;;;;3.53;100.00;96074.13;4996402;28;20401;-62
2022/03/28 00:47:07;;;;;;;14.73;8.93;;;;;;;3.58;100.00;96080.47;4996371;28;20030;-62
2022/03/28 00:49:36;;;;;;;19.08;9.77;;;;;;;3.58;100.00;96080.47;4995191;28;20026;-60
2022/03/28 00:52:02;;;;;;;16.83;9.43;;;;;;;3.56;100.00;96073.72;4995061;28;20101;-61
2022/03/28 00:54:31;;;;;;;18.08;9.60;;;;;;;3.51;100.00;96068.19;4994951;28;20493;-62
2022/03/28 00:56:56;;;;;;;20.85;9.23;;;;;;;3.40;100.00;96072.22;4996581;28;20374;-62
2022/03/28 00:59:22;;;;;;;16.05;9.35;;;;;;;3.32;100.00;96059.94;4996108;28;20034;-60
2022/03/28 01:01:56;;;;;;;17.52;9.65;;;;;;;3.28;100.00;96065.84;4996082;28;20026;-58
2022/03/28 01:04:21;;;;;;;17.55;8.48;;;;;;;3.23;100.00;96055.81;4994676;28;20076;-62
2022/03/28 01:06:47;;;;;;;17.83;9.02;;;;;;;3.25;100.00;96051.13;4996057;28;20105;-62
2022/03/28 01:09:24;;;;;;;16.00;9.48;;;;;;;3.20;100.00;96045.63;4996164;28;20030;-62
2022/03/28 01:11:52;;;;;;;16.48;9.02;;;;;;;3.07;100.00;96037.63;4995916;28;20101;-60
2022/03/28 01:14:20;;;;;;;16.38;9.45;;;;;;;2.97;100.00;96037.97;4995837;28;20050;-60
2022/03/28 01:19:42;;;;;;;16.85;8.98;;;;;;;2.86;100.00;96012.84;5008756;28;20458;-62
2022/03/28 01:22:11;;;;;;;13.77;8.88;;;;;;;2.83;100.00;96010.59;4995682;28;20026;-62
2022/03/28 01:24:38;;;;;;;16.27;8.93;;;;;;;2.82;100.00;96002.84;4995553;28;20061;-62
2022/03/28 01:27:05;;;;;;;16.52;8.65;;;;;;;2.80;100.00;95992.44;4994493;28;20031;-62
2022/03/28 01:29:33;;;;;;;14.60;8.45;;;;;;;2.82;100.00;95984.31;4989239;28;20398;-62
2022/03/28 01:31:58;;;;;;;14.63;8.10;;;;;;;2.79;100.00;95977.59;4976251;28;20022;-62
2022/03/28 01:34:24;;;;;;;14.48;8.30;;;;;;;2.78;100.00;95970.66;4976078;28;20386;-61
2022/03/28 01:36:49;;;;;;;17.40;8.77;;;;;;;2.78;100.00;95964.56;4976202;28;20071;-62
2022/03/28 01:39:16;;;;;;;15.15;8.90;;;;;;;2.79;100.00;95959.06;4975907;28;20030;-62
2022/03/28 01:41:44;;;;;;;16.10;8.98;;;;;;;2.83;100.00;95952.41;4976132;28;20493;-61
2022/03/28 01:44:10;;;;;;;15.13;8.57;;;;;;;2.81;100.00;95946.47;4973964;28;20023;-62
2022/03/28 01:47:01;;;;;;;15.13;8.73;;;;;;;2.78;100.00;95941.56;4975409;28;20030;-61
2022/03/28 01:49:31;;;;;;;17.27;8.80;;;;;;;2.80;100.00;95936.06;4983437;28;20034;-61
2022/03/28 01:51:59;;;;;;;13.93;7.50;;;;;;;2.76;100.00;95926.91;4995261;28;20052;-59
2022/03/28 01:54:24;;;;;;;15.25;8.50;;;;;;;2.67;100.00;95925.44;5009644;28;20104;-61
2022/03/28 01:56:53;;;;;;;15.32;8.32;;;;;;;2.61;100.00;95919.09;5010135;28;20089;-62
2022/03/28 01:59:18;;;;;;;15.30;8.55;;;;;;;2.59;100.00;95911.34;4995057;28;20019;-61
2022/03/28 02:01:51;;;;;;;13.50;8.40;;;;;;;2.56;100.00;95903.00;4995156;28;20034;-62
2022/03/28 02:04:16;;;;;;;15.85;8.23;;;;;;;2.51;100.00;95897.47;4994833;28;20030;-61
2022/03/28 02:06:41;;;;;;;16.02;8.82;;;;;;;2.46;100.00;95897.22;4995180;28;20438;-61
2022/03/28 02:09:10;;;;;;;16.85;9.23;;;;;;;2.42;100.00;95885.41;4995005;28;20033;-62
2022/03/28 02:11:41;;;;;;;14.88;8.50;;;;;;;2.38;100.00;95881.50;4994932;28;20022;-62
2022/03/28 02:14:20;;;;;;;14.05;7.93;;;;;;;2.33;100.00;95876.81;5009911;28;20033;-62
2022/03/28 02:16:45;;;;;;;16.10;9.10;;;;;;;2.28;100.00;95873.97;4994685;28;20045;-62
2022/03/28 02:19:10;;;;;;;14.90;7.65;;;;;;;2.27;100.00;95861.72;5009692;28;20057;-62
2022/03/28 02:21:36;;;;;;;14.48;8.73;;;;;;;2.26;100.00;95857.44;4994908;28;20031;-59
2022/03/28 02:24:05;;;;;;;12.98;8.10;;;;;;;2.19;100.00;95853.97;5009620;28;20485;-61
2022/03/28 02:26:30;;;;;;;13.38;8.52;;;;;;;2.10;100.00;95850.66;4994526;28;20053;-61
2022/03/28 02:28:56;;;;;;;15.20;9.02;;;;;;;2.02;100.00;95843.69;4994550;28;20018;-61
2022/03/28 02:31:21;;;;;;;15.32;8.70;;;;;;;1.95;100.00;95837.56;4974111;28;20029;-58
2022/03/28 02:33:46;;;;;;;15.20;8.75;;;;;;;1.91;100.00;95824.91;4974966;28;20069;-61
2022/03/28 02:36:12;;;;;;;16.20;8.82;;;;;;;1.88;100.00;95822.66;5008985;28;20395;-62
2022/03/28 02:38:37;;;;;;;18.20;8.25;;;;;;;1.83;100.00;95817.13;5009354;28;20030;-61
2022/03/28 02:41:02;;;;;;;16.88;8.13;;;;;;;1.77;100.00;95802.88;5009458;28;20061;-61
2022/03/28 02:43:28;;;;;;;17.38;9.30;;;;;;;1.73;100.00;95804.25;5009324;28;20033;-62
2022/03/28 02:45:54;;;;;;;15.40;8.50;;;;;;;1.76;100.00;95797.78;4993030;28;20572;-60
2022/03/28 02:48:22;;;;;;;18.65;8.63;;;;;;;1.87;100.00;95787.50;5009326;28;20034;-62
2022/03/28 02:50:49;;;;;;;19.83;9.05;;;;;;;1.91;100.00;95780.81;4994133;28;20385;-59
2022/03/28 02:53:18;;;;;;;16.75;9.02;;;;;;;1.89;100.00;95777.56;4994107;28;20049;-61
2022/03/28 02:55:43;;;;;;;17.42;9.52;;;;;;;1.76;100.00;95782.75;4993501;28;20046;-61
2022/03/28 02:58:12;;;;;;;16.65;8.68;;;;;;;1.70;100.00;95771.13;5009327;28;20086;-62
2022/03/28 03:00:43;;;;;;;14.82;8.55;;;;;;;1.68;100.00;95767.84;4993898;28;20030;-59
2022/03/28 03:03:08;;;;;;;15.05;8.23;;;;;;;1.72;100.00;95769.09;4993977;28;20033;-62
2022/03/28 03:05:34;;;;;;;17.58;8.77;;;;;;;1.71;100.00;95764.00;4993851;28;20022;-62
2022/03/28 03:07:59;;;;;;;16.33;9.75;;;;;;;1.65;100.00;95757.69;4993841;28;20106;-62
2022/03/28 03:10:25;;;;;;;15.63;9.00;;;;;;;1.56;100.00;95758.03;4993826;28;20034;-62
2022/03/28 03:12:50;;;;;;;16.25;8.55;;;;;;;1.49;100.00;95751.88;5008860;28;20565;-60
2022/03/28 03:15:19;;;;;;;15.63;9.90;;;;;;;1.50;100.00;95749.03;4993612;28;20092;-62
2022/03/28 03:17:44;;;;;;;17.88;9.48;;;;;;;1.54;100.00;95742.38;4993612;28;20030;-62
2022/03/28 03:20:10;;;;;;;16.95;8.77;;;;;;;1.57;100.00;95741.16;5008611;28;20041;-61
2022/03/28 03:22:36;;;;;;;16.25;8.75;;;;;;;1.60;100.00;95738.13;4993579;28;20061;-62
2022/03/28 03:25:01;;;;;;;15.00;8.23;;;;;;;1.57;100.00;95734.06;4992336;28;20050;-61
2022/03/28 03:27:27;;;;;;;15.70;8.43;;;;;;;1.53;100.00;95729.38;4993398;28;20460;-62
2022/03/28 03:29:55;;;;;;;16.92;8.93;;;;;;;1.52;100.00;95733.84;4986595;28;20023;-62
2022/03/28 03:32:23;;;;;;;18.15;9.48;;;;;;;1.47;100.00;95723.03;4974011;28;20117;-62
2022/03/28 03:34:52;;;;;;;17.95;8.93;;;;;;;1.43;100.00;95727.06;4973922;28;20035;-62
2022/03/28 03:37:17;;;;;;;16.33;8.52;;;;;;;1.39;100.00;95725.81;4972762;28;20061;-60
2022/03/28 03:39:42;;;;;;;15.00;9.10;;;;;;;1.33;100.00;95723.94;4973864;28;20050;-62
2022/03/28 03:42:08;;;;;;;17.15;9.18;;;;;;;1.26;100.00;95717.78;4973845;28;20026;-58
2022/03/28 03:44:33;;;;;;;17.10;9.05;;;;;;;1.32;100.00;95709.94;4973703;28;20058;-61
2022/03/28 03:46:59;;;;;;;17.80;9.15;;;;;;;1.37;100.00;95707.53;4972500;28;20031;-62
2022/03/28 03:49:24;;;;;;;16.60;9.70;;;;;;;1.42;100.00;95705.13;4973780;28;20075;-62
2022/03/28 03:51:49;;;;;;;18.10;8.50;;;;;;;1.42;100.00;95705.13;4972596;28;20030;-62
2022/03/28 03:54:15;;;;;;;15.38;8.70;;;;;;;1.44;100.00;95697.03;4973488;28;20033;-62
2022/03/28 03:56:41;;;;;;;18.05;9.38;;;;;;;1.42;100.00;95701.69;4973564;28;20035;-62
2022/03/28 03:59:06;;;;;;;16.45;9.60;;;;;;;1.38;100.00;95697.78;4972476;28;20026;-62
2022/03/28 04:01:35;;;;;;;17.15;9.32;;;;;;;1.32;100.00;95690.66;4973609;28;20393;-61
2022/03/28 04:04:03;;;;;;;18.27;9.65;;;;;;;1.29;100.00;95697.09;4973590;28;20019;-62
2022/03/28 04:06:32;;;;;;;16.70;8.80;;;;;;;1.26;100.00;95694.84;5003435;28;20073;-61
2022/03/28 04:08:59;;;;;;;18.27;9.27;;;;;;;1.25;100.00;95695.06;5010963;28;20030;-62
2022/03/28 04:11:25;;;;;;;17.25;9.45;;;;;;;1.23;100.00;95689.16;4997060;28;20451;-61
2022/03/28 04:13:58;;;;;;;19.05;8.60;;;;;;;1.20;100.00;95686.91;5012101;28;20113;-61
2022/03/28 04:16:26;;;;;;;;;;;;;;;1.25;100.00;95689.78;4997482;28;20097;-61
2022/03/28 04:18:52;;;;;;;;;;;;;;;1.30;100.00;95687.38;5012729;28;19922;-62
2022/03/28 04:21:23;;;;;;;;;;;;;;;1.33;100.00;95684.38;4979902;28;19936;-61
2022/03/28 04:23:51;;;;;;;;;;;;;;;1.26;100.00;95681.66;4997177;28;20373;-60
2022/03/28 04:26:16;;;;;;;;;;;;;;;1.22;100.00;95685.69;4997273;28;19916;-60
2022/03/28 04:28:42;;;;;;;;;;;;;;;1.22;100.00;95684.88;4995796;28;19909;-62
2022/03/28 04:31:07;;;;;;;;;;;;;;;1.25;100.00;95680.03;4978631;28;19910;-58
2022/03/28 04:33:36;;;;;;;;;;;;;;;1.22;100.00;95676.97;4977749;28;20284;-60
2022/03/28 04:36:04;;;;;;;;;;;;;;;1.20;100.00;95673.72;4977824;28;19938;-61
2022/03/28 04:38:30;;;;;;;;;;;;;;;1.21;100.00;95680.63;4977409;28;20008;-61
2022/03/28 04:40:55;;;;;;;;;;;;;;;1.15;100.00;95677.72;4976063;28;19949;-62
2022/03/28 04:43:23;;;;;;;;;;;;;;;1.09;100.00;95675.06;4977266;28;20292;-62
2022/03/28 04:45:48;;;;;;;;;;;;;;;1.11;100.00;95675.69;4977337;28;19992;-61
2022/03/28 04:48:23;;;;;;;;;;;;;;;1.14;100.00;95677.91;4977486;28;19964;-62
2022/03/28 04:50:48;;;;;;;;;;;;;;;1.17;100.00;95669.63;4977479;28;19910;-62
2022/03/28 04:53:22;;;;;;;;;;;;;;;1.15;100.00;95674.28;4977310;28;19914;-62
2022/03/28 04:55:48;;;;;;;;;;;;;;;1.10;100.00;95671.41;4984104;28;19917;-61
2022/03/28 04:58:16;;;;;;;;;;;;;;;1.09;100.00;95665.31;4996605;28;20364;-61
2022/03/28 05:00:42;;;;;;;;;;;;;;;1.08;100.00;95671.56;4996565;28;19920;-62
2022/03/28 05:03:07;;;;;;;;;;;;;;;1.14;100.00;95670.00;4996555;28;19909;-62
2022/03/28 05:05:32;;;;;;;;;;;;;;;1.14;100.00;95667.38;4996607;28;20261;-62
2022/03/28 05:07:58;;;;;;;;;;;;;;;1.10;100.00;95674.06;4996399;28;19916;-62
2022/03/28 05:10:23;;;;;;;;;;;;;;;1.02;100.00;95676.81;4996477;28;19910;-62
2022/03/28 05:12:48;;;;;;;;;;;;;;;0.97;100.00;95673.91;5011396;28;19964;-61
2022/03/28 05:15:20;;;;;;;;;;;;;;;0.96;100.00;95675.75;4995035;28;19917;-61
2022/03/28 05:17:48;;;;;;;;;;;;;;;1.00;100.00;95690.19;4995013;28;20004;-61
2022/03/28 05:20:14;;;;;;;;;;;;;;;1.04;100.00;95691.44;4996157;28;20000;-60
2022/03/28 05:22:42;;;;;;;;;;;;;;;1.08;100.00;95682.13;4996168;28;19960;-59
2022/03/28 05:25:07;;;;;;;;;;;;;;;1.03;100.00;95684.53;4996144;28;19916;-59
2022/03/28 05:27:40;;;;;;;;;;;;;;;0.97;100.00;95684.47;4992869;28;19918;-61
2022/03/28 05:30:06;;;;;;;;;;;;;;;0.94;100.00;95684.88;4989607;28;19909;-61
2022/03/28 05:32:31;;;;;;;;;;;;;;;0.96;100.00;95678.38;4994672;28;19996;-62
2022/03/28 05:34:56;;;;;;;;;;;;;;;0.99;100.00;95680.66;4990862;28;20364;-61
2022/03/28 05:37:22;;;;;;;;;;;;;;;1.11;100.00;95683.59;4993082;28;19964;-61
2022/03/28 05:39:48;;;;;;;;;;;;;;;1.16;100.00;95683.81;4976026;28;19910;-61
2022/03/28 05:42:17;;;;;;;;;;;;;;;1.19;100.00;95687.88;4976507;28;19914;-62
2022/03/28 05:44:42;;;;;;;;;;;;;;;1.20;100.00;95689.56;4976439;28;19957;-62
2022/03/28 05:47:10;;;;;;;;;;;;;;;1.25;100.00;95689.78;4985450;28;20368;-62
2022/03/28 05:49:45;;;;;;;;;;;;;;;1.32;100.00;95686.19;4982860;28;19984;-61
2022/03/28 05:52:11;;;;;;;;;;;;;;;1.41;100.00;95686.81;5000836;28;19918;-61
2022/03/28 05:54:39;;;;;;;;;;;;;;;1.52;100.00;95694.25;4992971;28;20391;-61
2022/03/28 05:57:05;;;;;;;;;;;;;;;1.64;100.00;95692.69;4994534;28;19920;-61
2022/03/28 05:59:31;;;;;;;;;;;;;;;1.73;100.00;95694.13;4981148;28;19914;-62
2022/03/28 06:01:56;;;;;;;;;;;;;;;1.83;100.00;95692.97;4975157;28;19921;-61
2022/03/28 06:04:21;;;;;;;;;;;;;;;1.94;100.00;95700.34;4973882;28;19910;-61
2022/03/28 06:06:46;;;;;;;;;;;;;;;2.03;100.00;95694.69;4978733;28;19909;-61
2022/03/28 06:09:35;;;;;;;;;;;;;;;2.17;100.00;95698.25;4999864;23;19965;-61
2022/03/28 06:12:03;;;;;;;;;;;;;;;2.32;100.00;95690.97;5012241;28;19928;-62
2022/03/28 06:14:35;;;;;;;;;;;;;;;2.45;100.00;95678.78;4996109;28;20357;-62
2022/03/28 06:17:07;;;;;;;;;;;;;;;2.64;100.00;95679.84;5012967;28;20003;-62
2022/03/28 06:19:35;;;;;;;;;;;;;;;2.78;100.00;95669.09;4992400;28;19913;-62
2022/03/28 06:22:00;;;;;;;;;;;;;;;2.90;100.00;95670.09;5014774;28;19909;-62
2022/03/28 06:24:31;;;;;;;;;;;;;;;3.06;100.00;95673.41;5014641;28;20442;-62
2022/03/28 06:26:56;;;;;;;;;;;;;;;3.20;100.00;95664.44;5029173;28;20207;-62
2022/03/28 06:29:22;;;;;;;;;;;;;;;3.31;100.00;95666.44;5014360;28;19909;-61
2022/03/28 06:31:50;;;;;;;;;;;;;;;3.48;100.00;95672.16;5027902;28;19983;-60
2022/03/28 06:34:16;;;;;;;;;;;;;;;3.69;100.00;95663.97;5010657;28;20023;-59
2022/03/28 06:37:00;;;;;;;;;;;;;;;4.06;100.00;95669.53;5030111;28;19910;-62
2022/03/28 06:39:28;;;;;;;;;;;;;;;4.50;100.00;95660.78;4994476;28;19953;-60
2022/03/28 06:41:53;;;;;;;;;;;;;;;5.03;100.00;95654.31;4994330;28;19909;-60
2022/03/28 06:44:21;;;;;;;;;;;;;;;5.54;100.00;95659.41;5004803;28;20004;-62
2022/03/28 06:46:52;;;;;;;;;;;;;;;6.01;100.00;95665.06;5013997;28;20340;-62
2022/03/28 06:49:18;;;;;;;;;;;;;;;6.51;100.00;95670.16;5029240;28;19913;-62
2022/03/28 06:51:43;;;;;;;;;;;;;;;7.00;100.00;95689.56;4993039;28;19910;-60
2022/03/28 06:54:14;;;;;;;;;;;;;;;7.46;100.00;95731.50;5004354;28;20371;-62
2022/03/28 06:56:45;;;;;;;;;;;;;;;7.93;100.00;95801.72;5002155;28;20323;-62
2022/03/28 06:59:10;;;;;;;;;;;;;;;8.40;100.00;95871.16;4994074;28;19968;-62
2022/03/28 07:01:42;;;;;;;;;;;;;;;8.79;100.00;95936.44;4994432;28;19909;-62
2022/03/28 07:04:10;;;;;;;;;;;;;;;9.23;100.00;96009.03;4994122;28;19910;-61
2022/03/28 07:06:35;;;;;;;;;;;;;;;9.61;100.00;96056.66;4994195;28;20373;-61
2022/03/28 07:09:04;;;;;;;;;;;;;;;9.81;100.00;96101.75;4994399;28;19968;-62
2022/03/28 07:11:35;;;;;;;;;;;;;;;10.05;100.00;96130.09;5013535;28;19909;-60
2022/03/28 07:14:07;;;;;;;;;;;;;;;10.28;100.00;96157.91;5012812;28;19992;-62
2022/03/28 07:16:35;;;;;;;;;;;;;;;10.53;100.00;96179.03;5028773;28;19909;-62
2022/03/28 07:19:04;;;;;;;;;;;;;;;10.76;100.00;96192.38;5008810;28;19957;-62
2022/03/28 07:21:33;;;;;;;;;;;;;;;10.97;100.00;96202.44;5008946;28;19917;-62
2022/03/28 07:23:59;;;;;;;;;;;;;;;11.18;100.00;96227.75;4993905;28;19918;-59
2022/03/28 07:26:27;;;;;;;;;;;;;;;11.39;100.00;96239.63;5008956;28;19917;-58
2022/03/28 07:29:02;;;;;;;;;;;;;;;11.52;100.00;96250.06;4993742;28;19909;-59
2022/03/28 07:31:42;;;;;;;;;;;;;;;11.68;100.00;96261.88;5001214;28;20554;-62
2022/03/28 07:36:57;;;;;;;;;;;;;;;11.96;98.65;96292.44;5015931;28;20048;-59
2022/03/28 07:39:26;;;;;;;;;;;;;;;12.04;99.07;96292.00;5013164;28;19913;-58
2022/03/28 07:41:51;;;;;;;;;;;;;;;12.13;98.97;96301.28;5012907;28;20001;-59
2022/03/28 07:44:23;;;;;;;;;;;;;;;12.41;98.71;96300.41;5009328;28;20012;-60
2022/03/28 07:46:48;;;;;;;;;;;;;;;12.69;96.64;96318.25;4993459;28;20001;-60
2022/03/28 07:49:16;;;;;;;;;;;;;;;12.81;94.26;96320.81;4993438;28;20005;-59
2022/03/28 07:51:47;;;;;;;;;;;;;;;12.83;94.07;96327.59;4993547;28;19910;-59
2022/03/28 07:54:12;;;;;;;;;;;;;;;12.92;93.75;96322.63;4993327;28;19910;-60
2022/03/28 07:56:56;;;;;;;;;;;;;;;12.96;94.57;96315.66;4993452;28;19917;-57
2022/03/28 07:59:23;;;;;;;;;;;;;;;13.17;93.38;96333.69;4993294;28;19921;-59
2022/03/28 08:01:51;;;;;;;;;;;;;;;13.44;92.55;96331.06;4993511;28;20339;-59
2022/03/28 08:04:19;;;;;;;;;;;;;;;13.75;89.69;96332.19;4993488;28;19964;-58
2022/03/28 08:06:47;;;;;;;;;;;;;;;14.06;88.94;96332.50;4997774;28;19916;-60
2022/03/28 08:09:21;;;;;;;;;;;;;;;14.18;87.66;96338.53;5001336;28;19969;-57
2022/03/28 08:11:46;;;;;;;;;;;;;;;14.21;87.39;96330.72;5002234;28;19955;-59
2022/03/28 08:14:12;;;;;;;;;;;;;;;14.40;86.18;96331.16;5012825;28;19909;-60
2022/03/28 08:16:37;;;;;;;;;;;;;;;14.56;84.98;96337.50;5028588;28;19935;-57
2022/03/28 08:19:03;;;;;;;;;;;;;;;14.83;84.10;96339.28;5012676;28;19999;-60
2022/03/28 08:21:31;;;;;;;;;;;;;;;15.15;83.02;96331.91;5012714;28;19913;-58
2022/03/28 08:23:56;;;;;;;;;;;;;;;15.23;81.20;96338.69;5012765;28;20395;-58
2022/03/28 08:26:22;;;;;;;;;;;;;;;15.37;82.60;96329.03;5012824;28;19909;-58
2022/03/28 08:28:47;;;;;;;;;;;;;;;15.52;80.14;96326.41;5012695;28;20260;-60
2022/03/28 08:31:25;;;;;;;;;;;;;;;15.72;77.63;96330.25;5012819;28;19996;-60
2022/03/28 08:33:50;;;;;;;;;;;;;;;15.75;77.37;96329.72;5027747;28;20003;-60
2022/03/28 08:36:19;;;;;;;;;;;;;;;15.94;77.21;96333.53;5027947;28;19948;-60
2022/03/28 08:38:44;;;;;;;;;;;;;;;16.15;76.09;96326.25;4995172;28;19921;-58
2022/03/28 08:41:13;;;;;;;;;;;;;;;16.34;75.79;96337.34;4993026;28;20319;-60
2022/03/28 08:43:45;;;;;;;;;;;;;;;16.24;73.49;96336.25;4993001;28;19910;-61
2022/03/28 08:46:16;;;;;;;;;;;;;;;16.46;72.35;96330.56;4993031;28;19909;-61
2022/03/28 08:48:42;;;;;;;;;;;;;;;16.79;71.80;96331.09;4992870;28;19914;-58
2022/03/28 08:51:08;;;;;;;;;;;;;;;17.08;70.38;96331.31;4992978;28;20361;-61
2022/03/28 08:53:33;;;;;;;;;;;;;;;17.12;69.63;96321.53;5007983;28;19921;-59
2022/03/28 08:55:58;;;;;;;;;;;;;;;17.05;71.71;96321.06;4996682;28;19909;-60
2022/03/28 08:58:27;;;;;;;;;;;;;;;17.35;72.54;96315.50;5009534;28;19992;-61
2022/03/28 09:00:55;;;;;;;;;;;;;;;17.54;70.92;96320.28;4996474;28;19917;-60
2022/03/28 09:03:33;;;;;;;;;;;;;;;17.49;68.90;96306.78;4996769;28;20300;-61
2022/03/28 09:06:01;;;;;;;;;;;;;;;17.81;69.09;96304.47;4996410;28;19910;-61
2022/03/28 09:08:26;;;;;;;;;;;;;;;17.91;68.12;96292.75;4996519;28;19914;-61
2022/03/28 09:10:57;;;;;;;;;;;;;;;18.00;69.73;96292.94;4997809;28;19924;-61
2022/03/28 09:13:42;;;;;;;;;;;;;;;17.98;68.69;96295.94;5014728;28;19909;-61
2022/03/28 09:16:17;;;;;;;;;;;;;;;18.21;68.63;96287.06;5013953;28;20232;-59
2022/03/28 09:18:43;;;;;;;;;;;;;;;18.55;67.42;96281.63;5013062;28;19960;-61
2022/03/28 09:21:16;;;;;;;;;;;;;;;18.63;66.82;96282.91;5011095;28;20439;-61
2022/03/28 09:23:43;;;;;;;;;;;;;;;18.87;65.82;96276.72;5009530;28;19910;-61
2022/03/28 09:26:20;;;;;;;;;;;;;;;19.11;66.54;96270.22;5010714;28;20287;-61
2022/03/28 09:29:01;;;;;;;;;;;;;;;19.08;66.19;96269.97;5020440;28;20387;-60
2022/03/28 09:31:31;;;;;;;;;;;;;;;19.10;63.86;96268.59;5026207;28;20375;-61
2022/03/28 09:33:56;;;;;;;;;;;;;;;18.94;61.62;96269.06;5031614;28;19910;-61
2022/03/28 09:36:38;;;;;;;;;;;;;;;19.06;60.41;96266.72;5005866;28;20296;-61
2022/03/28 09:39:07;;;;;;;;;;;;;;;19.14;63.76;96255.25;5007963;28;20291;-60
2022/03/28 09:41:33;;;;;;;;;;;;;;;19.36;62.84;96252.78;5001816;28;19909;-62
2022/03/28 09:43:59;;;;;;;;;;;;;;;19.32;59.69;96250.91;5014057;28;19916;-61
2022/03/28 09:46:25;;;;;;;;;;;;;;;19.42;57.80;96251.59;5013511;28;19917;-61
2022/03/28 09:48:55;;;;;;;;;;;;;;;19.65;57.09;96246.44;5004913;28;19914;-61
2022/03/28 09:51:28;;;;;;;;;;;;;;;19.75;54.92;96251.72;5004866;28;19909;-61
2022/03/28 09:53:53;;;;;;;;;;;;;;;19.81;56.33;96250.53;5003579;28;19917;-61
2022/03/28 09:56:34;;;;;;;;;;;;;;;20.11;56.23;96246.53;5015386;28;19909;-61
2022/03/28 09:59:05;;;;;;;;;;;;;;;20.45;54.49;96245.47;4995504;28;19921;-61
2022/03/28 10:01:35;;;;;;;;;;;;;;;20.41;49.73;96242.50;5006013;28;19963;-62
2022/03/28 10:04:05;;;;;;;;;;;;;;;20.43;48.94;96236.78;5002161;28;19910;-60
2022/03/28 10:06:37;;;;;;;;;;;;;;;20.54;50.34;96235.50;5003409;28;19910;-59
2022/03/28 10:09:04;;;;;;;;;;;;;;;20.38;50.47;96234.91;5008466;28;19956;-61
2022/03/28 10:11:29;;;;;;;;;;;;;;;20.12;48.75;96231.84;5000584;28;20335;-61
2022/03/28 10:13:54;;;;;;;;;;;;;;;19.90;48.88;96224.31;5010636;28;19960;-62
2022/03/28 10:16:20;;;;;;;;;;;;;;;20.01;50.70;96219.50;5005147;28;20000;-61
2022/03/28 10:18:46;;;;;;;;;;;;;;;20.11;50.06;96213.91;5001698;28;19918;-62
2022/03/28 10:21:47;;;;;;;;;;;;;;;20.33;49.77;96212.44;5031245;28;20008;-62
2022/03/28 10:24:24;;;;;;;;;;;;;;;20.63;48.34;96192.06;4933392;29;20388;-61
2022/03/28 10:26:56;;;;;;;;;;;;;;;20.98;51.03;96194.06;5002439;28;19956;-61
2022/03/28 10:29:54;;;;;;;;;;;;;;;21.05;47.24;96199.91;5028957;28;19916;-62
2022/03/28 10:32:25;;;;;;;;;;;;;;;21.08;46.86;96195.78;4982694;28;19963;-61
2022/03/28 10:34:56;;;;;;;;;;;;;;;21.27;45.25;96188.28;4994822;28;19917;-62
2022/03/28 10:37:24;;;;;;;;;;;;;;;21.27;46.71;96187.47;4994725;28;19909;-62
2022/03/28 10:40:11;;;;;;;;;;;;;;;21.26;46.04;96183.16;5009535;28;19917;-62
2022/03/28 10:42:55;;;;;;;;;;;;;;;21.45;43.01;96172.91;5019091;28;19916;-62
2022/03/28 10:45:45;;;;;;;;;;;;;;;21.60;41.95;96172.59;5014066;28;19996;-62
2022/03/28 10:48:29;;;;;;;;;;;;;;;21.97;42.58;96162.41;5013989;28;20376;-63
2022/03/28 10:50:55;;;;;;;;;;;;;;;22.41;39.82;96168.94;5014142;28;19910;-62
2022/03/28 10:53:33;;;;;;;;;;;;;;;22.42;39.07;96174.09;4997260;28;19910;-62
2022/03/28 10:56:13;;;;;;;;;;;;;;;22.11;39.42;96159.63;4994487;28;19909;-62
2022/03/28 10:58:41;;;;;;;;;;;;;;;21.95;39.37;96151.81;5007405;28;19913;-62
2022/03/28 11:01:17;;;;;;;;;;;;;;;22.27;39.86;96156.22;5029176;28;20009;-63
2022/03/28 11:03:46;;;;;;;;;;;;;;;22.24;39.09;96148.63;5014119;28;20399;-62
2022/03/28 11:06:12;;;;;;;;;;;;;;;22.35;39.84;96137.44;5028980;28;20391;-62
2022/03/28 11:08:58;;;;;;;;;;;;;;;22.74;38.04;96133.91;5004569;28;20412;-63
2022/03/28 11:11:30;;;;;;;;;;;;;;;22.60;37.58;96131.28;5002752;28;19910;-62
2022/03/28 11:14:12;;;;;;;;;;;;;;;22.61;37.47;96135.63;5012694;28;20040;-62
2022/03/28 11:16:59;;;;;;;;;;;;;;;22.38;37.13;96123.97;5013587;28;19984;-62
2022/03/28 11:19:32;;;;;;;;;;;;;;;22.06;37.95;96118.81;5013477;28;19979;-62
2022/03/28 11:22:08;;;;;;;;;;;;;;;22.33;39.06;96109.66;5013814;28;19959;-62
2022/03/28 11:24:58;;;;;;;;;;;;;;;22.70;38.76;96108.38;5014534;28;19910;-62
2022/03/28 11:27:27;;;;;;;;;;;;;;;23.31;38.18;96114.75;5013541;28;19955;-62
2022/03/28 11:30:02;;;;;;;;;;;;;;;23.48;36.15;96111.22;5013256;28;20419;-62
2022/03/28 11:32:35;;;;;;;;;;;;;;;23.45;36.26;96095.47;5015415;28;19945;-62
2022/03/28 11:35:01;;;;;;;;;;;;;;;23.55;35.91;96095.13;5013229;28;20011;-62
2022/03/28 11:37:27;;;;;;;;;;;;;;;23.33;36.49;96088.69;5028522;28;20016;-62
2022/03/28 11:40:08;;;;;;;;;;;;;;;23.28;36.80;96090.78;5013146;28;20007;-62
2022/03/28 11:42:34;;;;;;;;;;;;;;;23.05;37.22;96087.41;5029224;28;19909;-62
2022/03/28 11:45:15;;;;;;;;;;;;;;;23.12;37.65;96079.53;4995736;28;19948;-62
2022/03/28 11:47:49;;;;;;;;;;;;;;;23.04;36.31;96072.13;5013387;28;19949;-62
2022/03/28 11:50:15;;;;;;;;;;;;;;;23.13;37.09;96070.22;5013561;28;19915;-62
2022/03/28 11:52:40;;;;;;;;;;;;;;;23.06;35.07;96067.94;4979487;28;20379;-63
2022/03/28 11:55:25;;;;;;;;;;;;;;;23.27;36.65;96064.59;4997938;28;19956;-62
2022/03/28 11:58:23;;;;;;;;;;;;;;;23.43;36.48;96060.22;4989469;28;19960;-63
2022/03/28 12:00:50;;;;;;;;;;;;;;;23.61;37.18;96059.13;5000022;28;19924;-62
2022/03/28 12:03:16;;;;;;;;;;;;;;;23.55;35.42;96057.63;5012981;28;19909;-63
2022/03/28 12:05:46;;;;;;;;;;;;;;;23.56;36.86;96042.84;5009850;28;19960;-62
2022/03/28 12:08:15;;;;;;;;;;;;;;;23.38;36.30;96039.34;4993411;28;20384;-62
2022/03/28 12:10:51;;;;;;;;;;;;;;;23.37;30.67;96037.72;5013211;23;19926;-59
2022/03/28 12:13:17;;;;;;;;;;;;;;;23.83;32.31;96036.22;4990825;28;19920;-61
2022/03/28 12:15:45;;;;;;;;;;;;;;;23.97;31.09;96030.53;5008401;28;19910;-58
2022/03/28 12:18:11;;;;;;;;;;;;;;;24.09;31.59;96029.84;4993344;28;20372;-59
2022/03/28 12:20:46;;;;;;;;;;;;;;;24.36;31.20;96021.22;4993300;28;19913;-56
2022/03/28 12:23:13;;;;;;;;;;;;;;;24.41;30.26;96018.28;4993335;28;19996;-61
2022/03/28 12:25:40;;;;;;;;;;;;;;;24.34;29.84;96007.06;4993286;28;20383;-58
2022/03/28 12:28:10;;;;;;;;;;;;;;;24.37;29.90;96005.59;4975593;28;19939;-59
2022/03/28 12:30:44;;;;;;;;;;;;;;;24.58;29.34;96001.78;4996155;28;19910;-59